sensor_id;sensor_type;location;lat;lon;timestamp;pressure;altitude;pressure_sealevel;temperature;humidity
6530;BME280;3298;42.688;23.366;2022-12-07T00:00:45;51889.00;;;-145.06;70.51
6530;BME280;3298;42.688;23.366;2022-12-07T00:03:12;51893.09;;;-145.06;70.75
6530;BME280;3298;42.688;23.366;2022-12-07T00:05:39;51915.63;;;-145.06;71.00
6530;BME280;3298;42.688;23.366;2022-12-07T00:08:05;51864.47;;;-145.06;71.70
6530;BME280;3298;42.688;23.366;2022-12-07T00:10:33;51866.50;;;-145.06;71.70
6530;BME280;3298;42.688;23.366;2022-12-07T00:13:00;51882.88;;;-145.06;71.40
6530;BME280;3298;42.688;23.366;2022-12-07T00:15:28;51901.28;;;-145.06;71.00
6530;BME280;3298;42.688;23.366;2022-12-07T00:17:54;51882.88;;;-145.06;71.29
6530;BME280;3298;42.688;23.366;2022-12-07T00:20:21;51882.88;;;-145.06;70.97
6530;BME280;3298;42.688;23.366;2022-12-07T00:22:48;51872.66;;;-145.06;70.60
6530;BME280;3298;42.688;23.366;2022-12-07T00:25:15;51876.75;;;-145.06;70.97
6530;BME280;3298;42.688;23.366;2022-12-07T00:27:42;51874.69;;;-145.06;71.18
6530;BME280;3298;42.688;23.366;2022-12-07T00:30:09;51856.28;;;-145.06;71.40
6530;BME280;3298;42.688;23.366;2022-12-07T00:32:37;51886.97;;;-145.06;71.27
6530;BME280;3298;42.688;23.366;2022-12-07T00:35:04;51876.75;;;-145.06;71.42
6530;BME280;3298;42.688;23.366;2022-12-07T00:37:31;51882.88;;;-145.06;71.13
6530;BME280;3298;42.688;23.366;2022-12-07T00:39:58;51882.88;;;-145.06;71.71
6530;BME280;3298;42.688;23.366;2022-12-07T00:42:25;51864.47;;;-145.06;71.68
6530;BME280;3298;42.688;23.366;2022-12-07T00:44:52;51880.81;;;-145.06;71.43
6530;BME280;3298;42.688;23.366;2022-12-07T00:47:18;51876.75;;;-145.06;71.94
6530;BME280;3298;42.688;23.366;2022-12-07T00:49:46;51895.16;;;-145.06;71.97
6530;BME280;3298;42.688;23.366;2022-12-07T00:52:13;51893.09;;;-145.06;71.92
6530;BME280;3298;42.688;23.366;2022-12-07T00:54:40;51880.81;;;-145.06;71.39
6530;BME280;3298;42.688;23.366;2022-12-07T00:57:07;51889.00;;;-145.06;71.45
6530;BME280;3298;42.688;23.366;2022-12-07T00:59:34;51866.50;;;-145.06;71.46
6530;BME280;3298;42.688;23.366;2022-12-07T01:02:00;51901.28;;;-145.06;71.55
6530;BME280;3298;42.688;23.366;2022-12-07T01:04:27;51862.41;;;-145.06;71.28
6530;BME280;3298;42.688;23.366;2022-12-07T01:06:56;51886.97;;;-145.06;71.48
6530;BME280;3298;42.688;23.366;2022-12-07T01:09:23;51889.00;;;-145.06;70.82
6530;BME280;3298;42.688;23.366;2022-12-07T01:11:49;51884.91;;;-145.06;70.27
6530;BME280;3298;42.688;23.366;2022-12-07T01:14:18;51899.25;;;-145.06;70.40
6530;BME280;3298;42.688;23.366;2022-12-07T01:16:44;51872.66;;;-145.06;70.34
6530;BME280;3298;42.688;23.366;2022-12-07T01:19:11;51854.22;;;-145.06;70.86
6530;BME280;3298;42.688;23.366;2022-12-07T01:21:38;51880.81;;;-145.06;71.53
6530;BME280;3298;42.688;23.366;2022-12-07T01:24:09;51864.47;;;-145.06;70.90
6530;BME280;3298;42.688;23.366;2022-12-07T01:26:36;51880.81;;;-145.06;70.73
6530;BME280;3298;42.688;23.366;2022-12-07T01:29:03;51860.38;;;-145.06;71.11
6530;BME280;3298;42.688;23.366;2022-12-07T01:31:31;51868.56;;;-145.06;71.37
6530;BME280;3298;42.688;23.366;2022-12-07T01:33:59;51880.81;;;-145.06;70.89
6530;BME280;3298;42.688;23.366;2022-12-07T01:36:27;51901.28;;;-145.06;70.97
6530;BME280;3298;42.688;23.366;2022-12-07T01:38:56;51878.78;;;-145.06;70.75
6530;BME280;3298;42.688;23.366;2022-12-07T01:41:26;51891.06;;;-145.06;70.90
6530;BME280;3298;42.688;23.366;2022-12-07T01:44:16;51889.00;;;-145.06;71.20
6530;BME280;3298;42.688;23.366;2022-12-07T01:46:45;51913.56;;;-145.06;70.98
6530;BME280;3298;42.688;23.366;2022-12-07T01:49:16;51876.75;;;-145.06;71.69
6530;BME280;3298;42.688;23.366;2022-12-07T01:51:44;51884.91;;;-145.06;71.99
6530;BME280;3298;42.688;23.366;2022-12-07T01:54:14;51891.06;;;-145.06;71.74
6530;BME280;3298;42.688;23.366;2022-12-07T01:56:47;51891.06;;;-145.06;71.47
6530;BME280;3298;42.688;23.366;2022-12-07T01:59:16;51897.19;;;-145.06;71.46
6530;BME280;3298;42.688;23.366;2022-12-07T02:01:44;51876.75;;;-145.06;71.36
6530;BME280;3298;42.688;23.366;2022-12-07T02:04:12;51889.00;;;-145.06;71.89
6530;BME280;3298;42.688;23.366;2022-12-07T02:06:38;51901.28;;;-145.06;72.43
6530;BME280;3298;42.688;23.366;2022-12-07T02:09:07;51880.81;;;-145.06;72.71
6530;BME280;3298;42.688;23.366;2022-12-07T02:11:34;51901.28;;;-145.06;72.41
6530;BME280;3298;42.688;23.366;2022-12-07T02:14:02;51860.38;;;-145.06;71.87
6530;BME280;3298;42.688;23.366;2022-12-07T02:16:34;51891.06;;;-145.06;72.19
6530;BME280;3298;42.688;23.366;2022-12-07T02:19:26;51895.16;;;-145.06;71.82
6530;BME280;3298;42.688;23.366;2022-12-07T02:22:05;51895.16;;;-145.06;71.94
6530;BME280;3298;42.688;23.366;2022-12-07T02:24:48;51876.75;;;-145.06;72.01
6530;BME280;3298;42.688;23.366;2022-12-07T02:27:38;51880.81;;;-145.06;71.36
6530;BME280;3298;42.688;23.366;2022-12-07T02:30:08;51880.81;;;-145.06;72.39
6530;BME280;3298;42.688;23.366;2022-12-07T02:32:44;51893.09;;;-145.06;71.61
6530;BME280;3298;42.688;23.366;2022-12-07T02:35:18;51868.56;;;-145.06;71.62
6530;BME280;3298;42.688;23.366;2022-12-07T02:37:53;51880.81;;;-145.06;71.79
6530;BME280;3298;42.688;23.366;2022-12-07T02:40:26;51868.56;;;-145.06;71.68
6530;BME280;3298;42.688;23.366;2022-12-07T02:43:00;51860.38;;;-145.06;71.24
6530;BME280;3298;42.688;23.366;2022-12-07T02:45:31;51884.91;;;-145.06;71.50
6530;BME280;3298;42.688;23.366;2022-12-07T02:47:59;51889.00;;;-145.06;71.58
6530;BME280;3298;42.688;23.366;2022-12-07T02:50:27;51868.56;;;-145.06;71.65
6530;BME280;3298;42.688;23.366;2022-12-07T02:52:54;51880.81;;;-145.06;71.46
6530;BME280;3298;42.688;23.366;2022-12-07T02:55:26;51864.47;;;-145.06;71.67
6530;BME280;3298;42.688;23.366;2022-12-07T02:58:15;51876.75;;;-145.06;71.32
6530;BME280;3298;42.688;23.366;2022-12-07T03:00:52;51868.56;;;-145.06;71.24
6530;BME280;3298;42.688;23.366;2022-12-07T03:03:22;51901.28;;;-145.06;71.89
6530;BME280;3298;42.688;23.366;2022-12-07T03:05:58;51884.91;;;-145.06;72.00
6530;BME280;3298;42.688;23.366;2022-12-07T03:08:41;51905.38;;;-145.06;73.30
6530;BME280;3298;42.688;23.366;2022-12-07T03:11:13;51882.88;;;-145.06;72.49
6530;BME280;3298;42.688;23.366;2022-12-07T03:13:45;51905.38;;;-145.06;72.13
6530;BME280;3298;42.688;23.366;2022-12-07T03:16:19;51872.66;;;-145.06;72.16
6530;BME280;3298;42.688;23.366;2022-12-07T03:18:49;51880.81;;;-145.06;72.41
6530;BME280;3298;42.688;23.366;2022-12-07T03:21:19;51880.81;;;-145.06;72.64
6530;BME280;3298;42.688;23.366;2022-12-07T03:23:51;51876.75;;;-145.06;73.05
6530;BME280;3298;42.688;23.366;2022-12-07T03:26:19;51882.88;;;-145.06;72.81
6530;BME280;3298;42.688;23.366;2022-12-07T03:28:53;51903.34;;;-145.06;73.10
6530;BME280;3298;42.688;23.366;2022-12-07T03:31:26;51868.56;;;-145.06;73.18
6530;BME280;3298;42.688;23.366;2022-12-07T03:33:59;51891.06;;;-145.06;72.59
6530;BME280;3298;42.688;23.366;2022-12-07T03:36:32;51880.81;;;-145.06;71.25
6530;BME280;3298;42.688;23.366;2022-12-07T03:39:08;51868.56;;;-145.06;71.22
6530;BME280;3298;42.688;23.366;2022-12-07T03:41:40;51884.91;;;-145.06;72.18
6530;BME280;3298;42.688;23.366;2022-12-07T03:44:07;51921.75;;;-145.06;72.97
6530;BME280;3298;42.688;23.366;2022-12-07T03:46:41;51897.19;;;-145.06;73.42
6530;BME280;3298;42.688;23.366;2022-12-07T03:49:14;51872.66;;;-145.06;73.28
6530;BME280;3298;42.688;23.366;2022-12-07T03:51:49;51876.75;;;-145.06;73.38
6530;BME280;3298;42.688;23.366;2022-12-07T03:54:21;51901.28;;;-145.06;73.93
6530;BME280;3298;42.688;23.366;2022-12-07T03:56:50;51884.91;;;-145.06;74.30
6530;BME280;3298;42.688;23.366;2022-12-07T03:59:19;51897.19;;;-145.06;75.20
6530;BME280;3298;42.688;23.366;2022-12-07T04:01:54;51889.00;;;-145.06;75.03
6530;BME280;3298;42.688;23.366;2022-12-07T04:04:22;51901.28;;;-145.06;74.86
6530;BME280;3298;42.688;23.366;2022-12-07T04:06:49;51878.78;;;-145.06;74.47
6530;BME280;3298;42.688;23.366;2022-12-07T04:09:15;51876.75;;;-145.06;75.05
6530;BME280;3298;42.688;23.366;2022-12-07T04:11:43;51880.81;;;-145.06;74.77
6530;BME280;3298;42.688;23.366;2022-12-07T04:14:09;51915.63;;;-145.06;74.46
6530;BME280;3298;42.688;23.366;2022-12-07T04:16:45;51915.63;;;-145.06;74.92
6530;BME280;3298;42.688;23.366;2022-12-07T04:19:14;51880.81;;;-145.06;74.82
6530;BME280;3298;42.688;23.366;2022-12-07T04:21:42;51870.59;;;-145.06;74.89
6530;BME280;3298;42.688;23.366;2022-12-07T04:24:09;51913.56;;;-145.06;75.79
6530;BME280;3298;42.688;23.366;2022-12-07T04:26:36;51909.47;;;-145.06;75.59
6530;BME280;3298;42.688;23.366;2022-12-07T04:29:02;51917.66;;;-145.06;75.45
6530;BME280;3298;42.688;23.366;2022-12-07T04:31:29;51899.25;;;-145.06;75.68
6530;BME280;3298;42.688;23.366;2022-12-07T04:33:56;51919.72;;;-145.06;75.35
6530;BME280;3298;42.688;23.366;2022-12-07T04:36:24;51901.28;;;-145.06;75.07
6530;BME280;3298;42.688;23.366;2022-12-07T04:38:52;51905.38;;;-145.06;74.87
6530;BME280;3298;42.688;23.366;2022-12-07T04:41:19;51891.06;;;-145.06;74.85
6530;BME280;3298;42.688;23.366;2022-12-07T04:43:52;51897.19;;;-145.06;74.61
6530;BME280;3298;42.688;23.366;2022-12-07T04:46:19;51925.84;;;-145.06;74.75
6530;BME280;3298;42.688;23.366;2022-12-07T04:48:46;51891.06;;;-145.06;74.77
6530;BME280;3298;42.688;23.366;2022-12-07T04:51:13;51884.91;;;-145.06;75.37
6530;BME280;3298;42.688;23.366;2022-12-07T04:53:42;51919.72;;;-145.06;74.99
6530;BME280;3298;42.688;23.366;2022-12-07T04:56:08;51905.38;;;-145.06;75.43
6530;BME280;3298;42.688;23.366;2022-12-07T04:58:35;51921.75;;;-145.06;75.94
6530;BME280;3298;42.688;23.366;2022-12-07T05:01:02;51913.56;;;-145.06;75.71
6530;BME280;3298;42.688;23.366;2022-12-07T05:03:29;51891.06;;;-145.06;74.67
6530;BME280;3298;42.688;23.366;2022-12-07T05:05:56;51880.81;;;-145.06;74.92
6530;BME280;3298;42.688;23.366;2022-12-07T05:08:23;51891.06;;;-145.06;74.25
6530;BME280;3298;42.688;23.366;2022-12-07T05:10:51;51897.19;;;-145.06;74.67
6530;BME280;3298;42.688;23.366;2022-12-07T05:13:18;51893.09;;;-145.06;73.88
6530;BME280;3298;42.688;23.366;2022-12-07T05:15:45;51880.81;;;-145.06;73.49
6530;BME280;3298;42.688;23.366;2022-12-07T05:18:12;51895.16;;;-145.06;74.33
6530;BME280;3298;42.688;23.366;2022-12-07T05:20:39;51917.66;;;-145.06;73.33
6530;BME280;3298;42.688;23.366;2022-12-07T05:23:06;51878.78;;;-145.06;72.52
6530;BME280;3298;42.688;23.366;2022-12-07T05:25:33;51893.09;;;-145.06;72.10
6530;BME280;3298;42.688;23.366;2022-12-07T05:28:01;51905.38;;;-145.06;72.66
6530;BME280;3298;42.688;23.366;2022-12-07T05:30:28;51880.81;;;-145.06;72.76
6530;BME280;3298;42.688;23.366;2022-12-07T05:32:55;51905.38;;;-145.06;73.45
6530;BME280;3298;42.688;23.366;2022-12-07T05:35:22;51897.19;;;-145.06;73.93
6530;BME280;3298;42.688;23.366;2022-12-07T05:37:49;51880.81;;;-145.06;73.21
6530;BME280;3298;42.688;23.366;2022-12-07T05:40:16;51901.28;;;-145.06;73.02
6530;BME280;3298;42.688;23.366;2022-12-07T05:42:44;51897.19;;;-145.06;72.66
6530;BME280;3298;42.688;23.366;2022-12-07T05:45:11;51880.81;;;-145.06;73.03
6530;BME280;3298;42.688;23.366;2022-12-07T05:47:38;51872.66;;;-145.06;73.29
6530;BME280;3298;42.688;23.366;2022-12-07T05:50:06;51876.75;;;-145.06;73.96
6530;BME280;3298;42.688;23.366;2022-12-07T05:52:33;51860.38;;;-145.06;74.30
6530;BME280;3298;42.688;23.366;2022-12-07T05:55:00;51891.06;;;-145.06;75.84
6530;BME280;3298;42.688;23.366;2022-12-07T05:57:26;51901.28;;;-145.06;76.81
6530;BME280;3298;42.688;23.366;2022-12-07T05:59:53;51891.06;;;-145.06;75.96
6530;BME280;3298;42.688;23.366;2022-12-07T06:02:20;51856.28;;;-145.06;75.26
6530;BME280;3298;42.688;23.366;2022-12-07T06:04:47;51872.66;;;-145.06;74.86
6530;BME280;3298;42.688;23.366;2022-12-07T06:07:15;51889.00;;;-145.06;75.32
6530;BME280;3298;42.688;23.366;2022-12-07T06:09:42;51901.28;;;-145.06;76.10
6530;BME280;3298;42.688;23.366;2022-12-07T06:12:10;51893.09;;;-145.06;75.19
6530;BME280;3298;42.688;23.366;2022-12-07T06:14:54;51858.31;;;-145.06;74.37
6530;BME280;3298;42.688;23.366;2022-12-07T06:17:22;51889.00;;;-145.06;75.20
6530;BME280;3298;42.688;23.366;2022-12-07T06:19:49;51905.38;;;-145.06;75.20
6530;BME280;3298;42.688;23.366;2022-12-07T06:22:16;51889.00;;;-145.06;75.74
6530;BME280;3298;42.688;23.366;2022-12-07T06:24:44;51884.91;;;-145.06;75.67
6530;BME280;3298;42.688;23.366;2022-12-07T06:27:10;51909.47;;;-145.06;75.58
6530;BME280;3298;42.688;23.366;2022-12-07T06:29:37;51866.50;;;-145.06;74.98
6530;BME280;3298;42.688;23.366;2022-12-07T06:32:04;51880.81;;;-145.06;73.74
6530;BME280;3298;42.688;23.366;2022-12-07T06:34:33;51909.47;;;-145.06;74.19
6530;BME280;3298;42.688;23.366;2022-12-07T06:37:00;51909.47;;;-145.06;73.33
6530;BME280;3298;42.688;23.366;2022-12-07T06:39:27;51889.00;;;-145.06;72.74
6530;BME280;3298;42.688;23.366;2022-12-07T06:41:55;51880.81;;;-145.06;73.38
6530;BME280;3298;42.688;23.366;2022-12-07T06:44:23;51880.81;;;-145.06;73.28
6530;BME280;3298;42.688;23.366;2022-12-07T06:46:50;51886.97;;;-145.06;73.58
6530;BME280;3298;42.688;23.366;2022-12-07T06:49:17;51893.09;;;-145.06;73.70
6530;BME280;3298;42.688;23.366;2022-12-07T06:51:45;51897.19;;;-145.06;72.55
6530;BME280;3298;42.688;23.366;2022-12-07T06:54:13;51876.75;;;-145.06;72.60
6530;BME280;3298;42.688;23.366;2022-12-07T06:56:41;51880.81;;;-145.06;73.07
6530;BME280;3298;42.688;23.366;2022-12-07T06:59:08;51886.97;;;-145.06;73.48
6530;BME280;3298;42.688;23.366;2022-12-07T07:01:35;51899.25;;;-145.06;73.69
6530;BME280;3298;42.688;23.366;2022-12-07T07:04:02;51872.66;;;-145.06;72.54
6530;BME280;3298;42.688;23.366;2022-12-07T07:06:29;51891.06;;;-145.06;72.69
6530;BME280;3298;42.688;23.366;2022-12-07T07:08:57;51866.50;;;-145.06;72.18
6530;BME280;3298;42.688;23.366;2022-12-07T07:11:24;51899.25;;;-145.06;71.51
6530;BME280;3298;42.688;23.366;2022-12-07T07:13:51;51893.09;;;-145.06;70.46
6530;BME280;3298;42.688;23.366;2022-12-07T07:16:19;51868.56;;;-145.06;70.64
6530;BME280;3298;42.688;23.366;2022-12-07T07:18:45;51870.59;;;-145.06;70.99
6530;BME280;3298;42.688;23.366;2022-12-07T07:21:12;51889.00;;;-145.06;70.69
6530;BME280;3298;42.688;23.366;2022-12-07T07:23:40;51872.66;;;-145.06;71.31
6530;BME280;3298;42.688;23.366;2022-12-07T07:26:08;51872.66;;;-145.06;70.88
6530;BME280;3298;42.688;23.366;2022-12-07T07:28:35;51942.22;;;-145.06;71.35
6530;BME280;3298;42.688;23.366;2022-12-07T07:31:02;51925.84;;;-145.06;71.80
6530;BME280;3298;42.688;23.366;2022-12-07T07:33:28;51864.47;;;-145.06;71.47
6530;BME280;3298;42.688;23.366;2022-12-07T07:35:55;51872.66;;;-145.06;70.95
6530;BME280;3298;42.688;23.366;2022-12-07T07:38:22;51897.19;;;-145.06;70.46
6530;BME280;3298;42.688;23.366;2022-12-07T07:40:49;51878.78;;;-145.06;71.58
6530;BME280;3298;42.688;23.366;2022-12-07T07:43:17;51878.78;;;-145.06;70.57
6530;BME280;3298;42.688;23.366;2022-12-07T07:45:44;51872.66;;;-145.06;70.46
6530;BME280;3298;42.688;23.366;2022-12-07T07:48:11;51880.81;;;-145.06;69.33
6530;BME280;3298;42.688;23.366;2022-12-07T07:50:37;51895.16;;;-145.06;69.64
6530;BME280;3298;42.688;23.366;2022-12-07T07:53:04;51884.91;;;-145.06;69.23
6530;BME280;3298;42.688;23.366;2022-12-07T07:55:31;51868.56;;;-145.06;68.39
6530;BME280;3298;42.688;23.366;2022-12-07T07:57:58;51876.75;;;-145.06;67.80
6530;BME280;3298;42.688;23.366;2022-12-07T08:00:26;51874.69;;;-145.06;68.00
6530;BME280;3298;42.688;23.366;2022-12-07T08:02:53;51860.38;;;-145.06;68.07
6530;BME280;3298;42.688;23.366;2022-12-07T08:05:19;51868.56;;;-145.06;68.13
6530;BME280;3298;42.688;23.366;2022-12-07T08:07:46;51940.19;;;-145.06;67.77
6530;BME280;3298;42.688;23.366;2022-12-07T08:10:13;51852.19;;;-145.06;68.32
6530;BME280;3298;42.688;23.366;2022-12-07T08:12:42;51872.66;;;-145.06;68.65
6530;BME280;3298;42.688;23.366;2022-12-07T08:15:24;51874.69;;;-145.06;68.00
6530;BME280;3298;42.688;23.366;2022-12-07T08:17:52;51876.75;;;-145.06;68.11
6530;BME280;3298;42.688;23.366;2022-12-07T08:20:19;51852.19;;;-145.06;68.89
6530;BME280;3298;42.688;23.366;2022-12-07T08:22:45;51866.50;;;-145.06;68.66
6530;BME280;3298;42.688;23.366;2022-12-07T08:25:12;51868.56;;;-145.06;67.71
6530;BME280;3298;42.688;23.366;2022-12-07T08:27:39;51870.59;;;-145.06;67.34
6530;BME280;3298;42.688;23.366;2022-12-07T08:30:07;51889.00;;;-145.06;67.97
6530;BME280;3298;42.688;23.366;2022-12-07T08:32:33;51884.91;;;-145.06;66.97
6530;BME280;3298;42.688;23.366;2022-12-07T08:35:02;51876.75;;;-145.06;68.41
6530;BME280;3298;42.688;23.366;2022-12-07T08:37:29;51884.91;;;-145.06;68.31
6530;BME280;3298;42.688;23.366;2022-12-07T08:39:55;51868.56;;;-145.06;68.23
6530;BME280;3298;42.688;23.366;2022-12-07T08:42:22;51856.28;;;-145.06;67.04
6530;BME280;3298;42.688;23.366;2022-12-07T08:44:52;51870.59;;;-145.06;67.08
6530;BME280;3298;42.688;23.366;2022-12-07T08:47:19;51854.22;;;-145.06;66.30
6530;BME280;3298;42.688;23.366;2022-12-07T08:49:47;51864.47;;;-145.06;66.22
6530;BME280;3298;42.688;23.366;2022-12-07T08:52:18;51862.41;;;-145.06;66.46
6530;BME280;3298;42.688;23.366;2022-12-07T08:54:45;51880.81;;;-145.06;66.84
6530;BME280;3298;42.688;23.366;2022-12-07T08:57:12;51856.28;;;-145.06;66.18
6530;BME280;3298;42.688;23.366;2022-12-07T08:59:39;51874.69;;;-145.06;65.82
6530;BME280;3298;42.688;23.366;2022-12-07T09:02:06;51854.22;;;-145.06;65.55
6530;BME280;3298;42.688;23.366;2022-12-07T09:04:32;51860.38;;;-145.06;65.62
6530;BME280;3298;42.688;23.366;2022-12-07T09:06:59;51860.38;;;-145.06;64.95
6530;BME280;3298;42.688;23.366;2022-12-07T09:09:27;51870.59;;;-145.06;65.30
6530;BME280;3298;42.688;23.366;2022-12-07T09:11:54;51856.28;;;-145.06;65.18
6530;BME280;3298;42.688;23.366;2022-12-07T09:14:22;51856.28;;;-145.06;65.33
6530;BME280;3298;42.688;23.366;2022-12-07T09:16:49;51872.66;;;-145.06;65.27
6530;BME280;3298;42.688;23.366;2022-12-07T09:19:17;51878.78;;;-145.06;65.48
6530;BME280;3298;42.688;23.366;2022-12-07T09:21:43;51860.38;;;-145.06;65.06
6530;BME280;3298;42.688;23.366;2022-12-07T09:24:11;51880.81;;;-145.06;65.29
6530;BME280;3298;42.688;23.366;2022-12-07T09:26:39;51831.72;;;-145.06;65.47
6530;BME280;3298;42.688;23.366;2022-12-07T09:29:06;51860.38;;;-145.06;65.66
6530;BME280;3298;42.688;23.366;2022-12-07T09:31:35;51860.38;;;-145.06;65.49
6530;BME280;3298;42.688;23.366;2022-12-07T09:34:02;51856.28;;;-145.06;65.42
6530;BME280;3298;42.688;23.366;2022-12-07T09:36:30;51868.56;;;-145.06;65.54
6530;BME280;3298;42.688;23.366;2022-12-07T09:38:57;51864.47;;;-145.06;64.68
6530;BME280;3298;42.688;23.366;2022-12-07T09:41:25;51874.69;;;-145.06;64.59
6530;BME280;3298;42.688;23.366;2022-12-07T09:44:02;51864.47;;;-145.06;64.53
6530;BME280;3298;42.688;23.366;2022-12-07T09:46:34;51852.19;;;-145.06;63.93
6530;BME280;3298;42.688;23.366;2022-12-07T09:49:02;51886.97;;;-145.06;63.20
6530;BME280;3298;42.688;23.366;2022-12-07T09:51:29;51860.38;;;-145.06;63.27
6530;BME280;3298;42.688;23.366;2022-12-07T09:53:58;51852.19;;;-145.06;63.60
6530;BME280;3298;42.688;23.366;2022-12-07T09:56:25;51870.59;;;-145.06;64.06
6530;BME280;3298;42.688;23.366;2022-12-07T09:58:58;51839.91;;;-145.06;63.82
6530;BME280;3298;42.688;23.366;2022-12-07T10:01:29;51848.09;;;-145.06;63.83
6530;BME280;3298;42.688;23.366;2022-12-07T10:04:01;51852.19;;;-145.06;63.47
6530;BME280;3298;42.688;23.366;2022-12-07T10:06:33;51862.41;;;-145.06;62.71
6530;BME280;3298;42.688;23.366;2022-12-07T10:09:00;51823.53;;;-145.06;62.31
6530;BME280;3298;42.688;23.366;2022-12-07T10:11:28;51866.50;;;-145.06;61.70
6530;BME280;3298;42.688;23.366;2022-12-07T10:14:10;51852.19;;;-145.06;61.90
6530;BME280;3298;42.688;23.366;2022-12-07T10:16:39;51864.47;;;-145.06;61.87
6530;BME280;3298;42.688;23.366;2022-12-07T10:19:22;51835.81;;;-145.06;61.60
6530;BME280;3298;42.688;23.366;2022-12-07T10:22:04;51864.47;;;-145.06;61.82
6530;BME280;3298;42.688;23.366;2022-12-07T10:24:31;51860.38;;;-145.06;60.89
6530;BME280;3298;42.688;23.366;2022-12-07T10:26:58;51854.22;;;-145.06;60.75
6530;BME280;3298;42.688;23.366;2022-12-07T10:29:30;51864.47;;;-145.06;60.97
6530;BME280;3298;42.688;23.366;2022-12-07T10:32:00;51862.41;;;-145.06;60.52
6530;BME280;3298;42.688;23.366;2022-12-07T10:34:30;51891.06;;;-145.06;60.56
6530;BME280;3298;42.688;23.366;2022-12-07T10:37:16;51827.63;;;-145.06;60.50
6530;BME280;3298;42.688;23.366;2022-12-07T10:39:44;51831.72;;;-145.06;60.79
6530;BME280;3298;42.688;23.366;2022-12-07T10:42:17;51866.50;;;-145.06;60.93
6530;BME280;3298;42.688;23.366;2022-12-07T10:44:46;51864.47;;;-145.06;60.59
6530;BME280;3298;42.688;23.366;2022-12-07T10:47:33;51848.09;;;-145.06;60.39
6530;BME280;3298;42.688;23.366;2022-12-07T10:50:17;51846.03;;;-145.06;61.00
6530;BME280;3298;42.688;23.366;2022-12-07T10:53:09;51866.50;;;-145.06;61.15
6530;BME280;3298;42.688;23.366;2022-12-07T10:55:55;51862.41;;;-145.06;60.96
6530;BME280;3298;42.688;23.366;2022-12-07T10:58:34;51850.13;;;-145.06;60.62
6530;BME280;3298;42.688;23.366;2022-12-07T11:01:13;51852.19;;;-145.06;60.17
6530;BME280;3298;42.688;23.366;2022-12-07T11:04:01;51852.19;;;-145.06;59.17
6530;BME280;3298;42.688;23.366;2022-12-07T11:06:35;51868.56;;;-145.06;60.12
6530;BME280;3298;42.688;23.366;2022-12-07T11:09:29;51860.38;;;-145.06;59.49
6530;BME280;3298;42.688;23.366;2022-12-07T11:12:05;51852.19;;;-145.06;59.05
6530;BME280;3298;42.688;23.366;2022-12-07T11:14:39;51841.94;;;-145.06;58.62
6530;BME280;3298;42.688;23.366;2022-12-07T11:17:15;51870.59;;;-145.06;59.19
6530;BME280;3298;42.688;23.366;2022-12-07T11:19:52;51839.91;;;-145.06;59.24
6530;BME280;3298;42.688;23.366;2022-12-07T11:22:31;51856.28;;;-145.06;59.26
6530;BME280;3298;42.688;23.366;2022-12-07T11:25:15;51862.41;;;-145.06;59.01
6530;BME280;3298;42.688;23.366;2022-12-07T11:27:49;51844.00;;;-145.06;60.34
6530;BME280;3298;42.688;23.366;2022-12-07T11:30:24;51854.22;;;-145.06;60.90
6530;BME280;3298;42.688;23.366;2022-12-07T11:33:08;51854.22;;;-145.06;60.45
6530;BME280;3298;42.688;23.366;2022-12-07T11:35:47;51831.72;;;-145.06;58.86
6530;BME280;3298;42.688;23.366;2022-12-07T11:38:17;51839.91;;;-145.06;56.08
6530;BME280;3298;42.688;23.366;2022-12-07T11:40:46;51850.13;;;-145.06;56.25
6530;BME280;3298;42.688;23.366;2022-12-07T11:43:21;51860.38;;;-145.06;56.57
6530;BME280;3298;42.688;23.366;2022-12-07T11:45:56;51844.00;;;-145.06;56.00
6530;BME280;3298;42.688;23.366;2022-12-07T11:48:32;51850.13;;;-145.06;57.97
6530;BME280;3298;42.688;23.366;2022-12-07T11:51:01;51929.94;;;-145.06;59.08
6530;BME280;3298;42.688;23.366;2022-12-07T11:53:33;51825.56;;;-145.06;58.67
6530;BME280;3298;42.688;23.366;2022-12-07T11:56:06;51819.44;;;-145.06;57.47
6530;BME280;3298;42.688;23.366;2022-12-07T11:58:44;51841.94;;;-145.06;56.19
6530;BME280;3298;42.688;23.366;2022-12-07T12:01:26;51846.03;;;-145.06;54.49
6530;BME280;3298;42.688;23.366;2022-12-07T12:04:03;51839.91;;;-145.06;53.97
6530;BME280;3298;42.688;23.366;2022-12-07T12:06:32;51848.09;;;-145.06;54.68
6530;BME280;3298;42.688;23.366;2022-12-07T12:09:04;51870.59;;;-145.06;55.71
6530;BME280;3298;42.688;23.366;2022-12-07T12:11:47;51852.19;;;-145.06;56.13
6530;BME280;3298;42.688;23.366;2022-12-07T12:17:30;51856.28;;;-145.06;57.81
6530;BME280;3298;42.688;23.366;2022-12-07T12:20:13;51856.28;;;-145.06;57.83
6530;BME280;3298;42.688;23.366;2022-12-07T12:22:44;51889.00;;;-145.06;57.88
6530;BME280;3298;42.688;23.366;2022-12-07T12:25:19;51829.66;;;-145.06;57.87
6530;BME280;3298;42.688;23.366;2022-12-07T12:27:48;51868.56;;;-145.06;58.46
6530;BME280;3298;42.688;23.366;2022-12-07T12:30:31;51860.38;;;-145.06;58.08
6530;BME280;3298;42.688;23.366;2022-12-07T12:33:04;51833.75;;;-145.06;58.23
6530;BME280;3298;42.688;23.366;2022-12-07T12:35:34;51940.19;;;-145.06;58.44
6530;BME280;3298;42.688;23.366;2022-12-07T12:38:32;51856.28;;;-145.06;58.71
6530;BME280;3298;42.688;23.366;2022-12-07T12:41:00;51852.19;;;-145.06;59.29
6530;BME280;3298;42.688;23.366;2022-12-07T12:43:48;51856.28;;;-145.06;59.13
6530;BME280;3298;42.688;23.366;2022-12-07T12:46:45;51854.22;;;-145.06;58.96
6530;BME280;3298;42.688;23.366;2022-12-07T12:49:34;51850.13;;;-145.06;59.42
6530;BME280;3298;42.688;23.366;2022-12-07T12:55:15;51856.28;;;-145.06;59.19
6530;BME280;3298;42.688;23.366;2022-12-07T12:57:45;51856.28;;;-145.06;59.09
6530;BME280;3298;42.688;23.366;2022-12-07T13:00:18;51852.19;;;-145.06;58.40
6530;BME280;3298;42.688;23.366;2022-12-07T13:02:49;51854.22;;;-145.06;57.29
6530;BME280;3298;42.688;23.366;2022-12-07T13:05:19;51846.03;;;-145.06;57.35
6530;BME280;3298;42.688;23.366;2022-12-07T13:08:02;51866.50;;;-145.06;56.92
6530;BME280;3298;42.688;23.366;2022-12-07T13:10:36;51844.00;;;-145.06;58.02
6530;BME280;3298;42.688;23.366;2022-12-07T13:13:34;51848.09;;;-145.06;57.61